Archers Lodge, North Carolina
Current Conditions -  °F | °C
As of 4:35 AM on Saturday 20 Dec 2014 (Local Time) from KJNX Reporting Station
Clear Clear  
Wind Chill: 37°   Ceiling: Unl
Heat Index: 37°   Visibility: 10mi
Dew Point: 32°   Wind: 3mph
Humidity: 81%   Direction: 40°NE
Pressure: 30.23"   Gusts: NA
Location:  35.6101°N, 78.4715°W
Report Text: KJNX 200935Z AUTO 04003KT 10SM CLR 03/00 A3023 RMK AO2
Loading
Personal Weather Stations






























Interactive Weather Map New forecast layout! Learn more

10-Day Weather Forecast

Advertisements
Track Severe Weather on mobile